Time;durP1;ratioP1;P1;durP2;ratioP2;P2;SDS_P1;SDS_P2;PMS_P1;PMS_P2;Temp;Humidity;BMP_temperature;BMP_pressure;BME280_temperature;BME280_humidity;BME280_pressure;Samples;Min_cycle;Max_cycle;Signal;HPM_P1;HPM_P2
2021/10/25 00:01:48;;;;;;;;;;;;;;;-144.99;88.60;52486.81;5080051;28;20012;-80
2021/10/25 00:04:14;;;;;;;;;;;;;;;-144.99;88.45;52501.09;5092467;28;19980;-79
2021/10/25 00:06:41;;;;;;;;;;;;;;;-144.99;88.10;52497.00;5106332;28;19980;-82
2021/10/25 00:09:07;;;;;;;;;;;;;;;-144.99;87.83;52460.31;5102128;28;20004;-82
2021/10/25 00:11:34;;;;;;;;;;;;;;;-144.99;88.45;52484.78;5108733;28;20063;-80
2021/10/25 00:14:00;;;;;;;;;;;;;;;-144.99;88.16;52484.78;5095048;28;20093;-79
2021/10/25 00:16:28;;;;;;;;;;;;;;;-144.99;88.24;52431.78;5080995;28;19977;-82
2021/10/25 00:18:54;;;;;;;;;;;;;;;-144.99;88.42;52476.63;5108412;28;20489;-84
2021/10/25 00:21:21;;;;;;;;;;;;;;;-144.99;88.84;52482.75;5103491;28;20532;-79
2021/10/25 00:23:49;;;;;;;;;;;;;;;-144.99;88.18;52458.28;5100056;28;20106;-80
2021/10/25 00:26:15;;;;;;;;;;;;;;;-144.99;88.02;52478.66;5095432;28;20521;-82
2021/10/25 00:28:42;;;;;;;;;;;;;;;-144.99;88.05;52452.16;5100012;28;20004;-81
2021/10/25 00:31:08;;;;;;;;;;;;;;;-144.99;88.04;52486.81;5103423;28;19990;-80
2021/10/25 00:33:36;;;;;;;;;;;;;;;-144.99;87.99;52456.25;5103185;28;19984;-81
2021/10/25 00:36:02;;;;;;;;;;;;;;;-144.99;87.81;52480.72;5102709;28;19983;-81
2021/10/25 00:38:29;;;;;;;;;;;;;;;-144.99;88.20;52484.78;5108851;28;20000;-80
2021/10/25 00:40:55;;;;;;;;;;;;;;;-144.99;88.08;52466.44;5108127;28;20107;-82
2021/10/25 00:43:21;;;;;;;;;;;;;;;-144.99;87.59;52488.84;5103335;28;19976;-82
2021/10/25 00:45:49;;;;;;;;;;;;;;;-144.99;87.86;52505.16;5084615;28;19987;-82
2021/10/25 00:48:15;;;;;;;;;;;;;;;-144.99;87.55;52497.00;5090539;28;20044;-82
2021/10/25 00:50:43;;;;;;;;;;;;;;;-144.99;87.02;52492.94;5096689;28;19991;-82
2021/10/25 00:53:10;;;;;;;;;;;;;;;-144.99;87.71;52517.41;5096045;28;19980;-82
2021/10/25 00:55:37;;;;;;;;;;;;;;;-144.99;87.93;52490.91;5096253;28;19976;-82
2021/10/25 00:58:04;;;;;;;;;;;;;;;-144.99;87.35;52566.31;5094961;28;20050;-81
2021/10/25 01:00:30;;;;;;;;;;;;;;;-144.99;87.57;52456.25;5096002;28;19985;-82
2021/10/25 01:02:56;;;;;;;;;;;;;;;-144.99;87.56;52480.72;5108728;28;19977;-83
2021/10/25 01:05:24;;;;;;;;;;;;;;;-144.99;87.35;52505.16;5105432;28;20044;-84
2021/10/25 01:07:54;;;;;;;;;;;;;;;-144.99;87.25;52484.78;5108377;28;20007;-83
2021/10/25 01:10:21;;;;;;;;;;;;;;;-144.99;87.88;52503.13;5098700;28;19980;-82
2021/10/25 01:12:48;;;;;;;;;;;;;;;-144.99;87.53;52468.47;5094216;28;19991;-81
2021/10/25 01:15:15;;;;;;;;;;;;;;;-144.99;87.88;52444.03;5081031;28;19973;-80
2021/10/25 01:17:41;;;;;;;;;;;;;;;-144.99;87.74;52482.75;5086949;28;20018;-80
2021/10/25 01:20:09;;;;;;;;;;;;;;;-144.99;87.56;52499.06;5092506;28;20046;-80
2021/10/25 01:22:37;;;;;;;;;;;;;;;-144.99;88.18;52468.47;5105938;28;20003;-80
2021/10/25 01:25:04;;;;;;;;;;;;;;;-144.99;88.21;52505.16;5092163;28;20050;-79
2021/10/25 01:27:30;;;;;;;;;;;;;;;-144.99;88.54;52456.25;5091430;28;19987;-79
2021/10/25 01:29:56;;;;;;;;;;;;;;;-144.99;89.09;52484.78;5102909;28;20015;-77
2021/10/25 01:32:23;;;;;;;;;;;;;;;-144.99;88.64;52474.59;5109217;28;20450;-78
2021/10/25 01:34:49;;;;;;;;;;;;;;;-144.99;88.90;52505.16;5108877;28;20215;-78
2021/10/25 01:37:17;;;;;;;;;;;;;;;-144.99;88.54;52492.94;5114912;28;19976;-78
2021/10/25 01:39:44;;;;;;;;;;;;;;;-144.99;88.39;52472.56;5114432;28;19976;-82
2021/10/25 01:42:10;;;;;;;;;;;;;;;-144.99;88.97;52444.03;5117913;28;19999;-79
2021/10/25 01:44:37;;;;;;;;;;;;;;;-144.99;89.04;52476.63;5091473;28;19977;-82
2021/10/25 01:47:03;;;;;;;;;;;;;;;-144.99;88.84;52464.41;5089493;28;20318;-77
2021/10/25 01:49:30;;;;;;;;;;;;;;;-144.99;88.95;52482.75;5108175;28;20086;-77
2021/10/25 01:51:56;;;;;;;;;;;;;;;-144.99;89.74;52494.97;5094702;28;19924;-77
2021/10/25 01:54:24;;;;;;;;;;;;;;;-144.99;89.51;52476.63;5090471;28;19981;-77
2021/10/25 01:56:51;;;;;;;;;;;;;;;-144.99;89.46;52472.56;5088082;28;20031;-77
2021/10/25 01:59:17;;;;;;;;;;;;;;;-144.99;89.30;52492.94;5089641;28;20098;-77
2021/10/25 02:01:44;;;;;;;;;;;;;;;-144.99;89.70;52505.16;5097667;28;20075;-80
2021/10/25 02:04:10;;;;;;;;;;;;;;;-144.99;89.68;52456.25;5114421;28;20031;-81
2021/10/25 02:06:37;;;;;;;;;;;;;;;-144.99;89.65;52497.00;5123315;27;19984;-82
2021/10/25 02:09:04;;;;;;;;;;;;;;;-144.99;89.79;52505.16;5093654;28;20009;-78
2021/10/25 02:11:32;;;;;;;;;;;;;;;-144.99;89.87;52454.22;5086647;28;20004;-78
2021/10/25 02:13:58;;;;;;;;;;;;;;;-144.99;89.88;52476.63;5075354;28;19973;-79
2021/10/25 02:16:25;;;;;;;;;;;;;;;-144.99;89.84;52468.47;5082396;28;19977;-80
2021/10/25 02:18:52;;;;;;;;;;;;;;;-144.99;89.95;52492.94;5088465;28;19992;-81
2021/10/25 02:21:19;;;;;;;;;;;;;;;-144.99;90.00;52460.31;5110679;28;20003;-81
2021/10/25 02:23:45;;;;;;;;;;;;;;;-144.99;90.41;52513.31;5094073;28;20346;-78
2021/10/25 02:26:12;;;;;;;;;;;;;;;-144.99;90.50;52478.66;5086843;28;20012;-82
2021/10/25 02:28:39;;;;;;;;;;;;;;;-144.99;90.65;52492.94;5097288;28;20532;-79
2021/10/25 02:31:06;;;;;;;;;;;;;;;-144.99;91.13;52462.34;5105774;28;19987;-79
2021/10/25 02:33:33;;;;;;;;;;;;;;;-144.99;91.34;52525.56;5092339;28;20439;-79
2021/10/25 02:35:59;;;;;;;;;;;;;;;-144.99;90.78;52464.41;5089187;28;20361;-80
2021/10/25 02:38:25;;;;;;;;;;;;;;;-144.99;90.66;52525.56;5091806;28;20494;-82
2021/10/25 02:40:52;;;;;;;;;;;;;;;-144.99;90.48;52527.59;5089789;28;19991;-84
2021/10/25 02:43:18;;;;;;;;;;;;;;;-144.99;91.16;52497.00;5087833;28;19995;-83
2021/10/25 02:45:46;;;;;;;;;;;;;;;-144.99;90.81;52488.84;5076551;28;19981;-81
2021/10/25 02:48:13;;;;;;;;;;;;;;;-144.99;90.91;52474.59;5085584;28;19996;-80
2021/10/25 02:50:39;;;;;;;;;;;;;;;-144.99;90.53;52497.00;5092831;28;19987;-80
2021/10/25 02:53:07;;;;;;;;;;;;;;;-144.99;90.88;52478.66;5091145;28;20026;-79
2021/10/25 02:55:34;;;;;;;;;;;;;;;-144.99;91.22;52488.84;5102579;28;20006;-80
2021/10/25 02:58:00;;;;;;;;;;;;;;;-144.99;91.33;52480.72;5099180;28;19996;-80
2021/10/25 03:00:27;;;;;;;;;;;;;;;-144.99;90.81;52480.72;5095503;28;19980;-81
2021/10/25 03:02:55;;;;;;;;;;;;;;;-144.99;92.31;52464.41;5094377;28;19996;-78
2021/10/25 03:05:21;;;;;;;;;;;;;;;-144.99;92.21;52490.91;5095961;28;20071;-85
2021/10/25 03:07:48;;;;;;;;;;;;;;;-144.99;92.45;52468.47;5100493;28;20007;-84
2021/10/25 03:10:14;;;;;;;;;;;;;;;-144.99;91.89;52515.34;5074990;22;20000;-74
2021/10/25 03:12:40;;;;;;;;;;;;;;;-144.99;92.02;52490.91;5055710;28;19984;-74
2021/10/25 03:15:08;;;;;;;;;;;;;;;-144.99;91.65;52476.63;5060242;28;19974;-74
2021/10/25 03:17:35;;;;;;;;;;;;;;;-144.99;92.00;52452.16;5061059;28;19981;-74
2021/10/25 03:20:02;;;;;;;;;;;;;;;-144.99;92.78;52484.78;5068791;28;20004;-74
2021/10/25 03:22:29;;;;;;;;;;;;;;;-144.99;93.21;52490.91;5085523;28;20003;-74
2021/10/25 03:24:55;;;;;;;;;;;;;;;-144.99;93.29;52480.72;5084852;28;20131;-73
2021/10/25 03:27:22;;;;;;;;;;;;;;;-144.99;93.03;52492.94;5084099;28;20473;-73
2021/10/25 03:29:48;;;;;;;;;;;;;;;-144.99;93.81;52505.16;5089464;28;20069;-73
2021/10/25 03:32:15;;;;;;;;;;;;;;;-144.99;93.33;52507.19;5090032;28;19981;-75
2021/10/25 03:34:41;;;;;;;;;;;;;;;-144.99;93.06;52505.16;5075525;28;20520;-75
2021/10/25 03:37:09;;;;;;;;;;;;;;;-144.99;93.43;52517.41;5071439;28;19984;-75
2021/10/25 03:39:38;;;;;;;;;;;;;;;-144.99;93.47;52521.47;5071362;28;20497;-74
2021/10/25 03:42:10;;;;;;;;;;;;;;;-144.99;93.79;52497.00;5069525;28;20004;-74
2021/10/25 03:44:42;;;;;;;;;;;;;;;-144.99;93.38;52456.25;5069679;28;20019;-75
2021/10/25 03:47:13;;;;;;;;;;;;;;;-144.99;93.61;52521.47;5070761;28;19981;-74
2021/10/25 03:49:44;;;;;;;;;;;;;;;-144.99;93.45;52537.78;5072750;28;20003;-73
2021/10/25 03:52:18;;;;;;;;;;;;;;;-144.99;93.36;52509.25;5072062;28;19981;-73
2021/10/25 03:54:48;;;;;;;;;;;;;;;-144.99;93.80;52494.97;5071664;28;20062;-73
2021/10/25 04:27:27;;;;;;;;;;;;;;;-144.99;96.73;52476.63;5067398;28;19983;-72
2021/10/25 04:30:00;;;;;;;;;;;;;;;-144.99;98.02;52507.19;5069462;28;20008;-72
2021/10/25 04:32:27;;;;;;;;;;;;;;;-144.99;99.66;52456.25;5069574;28;19981;-72
2021/10/25 04:34:53;;;;;;;;;;;;;;;-144.99;99.06;52509.25;5069491;28;19985;-71
2021/10/25 04:37:20;;;;;;;;;;;;;;;-144.99;97.95;52492.94;5069057;28;20031;-73
2021/10/25 04:39:47;;;;;;;;;;;;;;;-144.99;99.26;52480.72;5069564;28;20004;-72
2021/10/25 04:42:16;;;;;;;;;;;;;;;-144.99;99.56;52484.78;5068047;28;20000;-71
2021/10/25 04:44:43;;;;;;;;;;;;;;;-144.99;98.56;52497.00;5067736;28;20409;-72
2021/10/25 04:47:09;;;;;;;;;;;;;;;-144.99;100.00;52501.09;5065629;28;19984;-75
2021/10/25 04:49:35;;;;;;;;;;;;;;;-144.99;99.37;52468.47;5069876;28;20004;-74
2021/10/25 04:52:03;;;;;;;;;;;;;;;-144.99;100.00;52492.94;5069309;28;19980;-75
2021/10/25 04:54:31;;;;;;;;;;;;;;;-144.99;100.00;52488.84;5068574;28;19955;-74
2021/10/25 04:56:58;;;;;;;;;;;;;;;-144.99;98.37;52480.72;5055143;28;20030;-73
2021/10/25 04:59:25;;;;;;;;;;;;;;;-144.99;99.49;52488.84;5079214;28;20475;-74
2021/10/25 05:01:51;;;;;;;;;;;;;;;-144.99;97.03;52468.47;5081008;28;19977;-75
2021/10/25 05:04:18;;;;;;;;;;;;;;;-144.99;96.00;52468.47;4029978;28;10000813;-75
2021/10/25 05:06:44;;;;;;;;;;;;;;;-144.99;95.69;52497.00;5081866;28;19984;-75
2021/10/25 05:09:10;;;;;;;;;;;;;;;-144.99;95.91;52501.09;5065654;28;20028;-75
2021/10/25 05:11:37;;;;;;;;;;;;;;;-144.99;96.08;52456.25;5064870;28;19977;-74
2021/10/25 05:14:05;;;;;;;;;;;;;;;-144.99;95.71;52456.25;5064081;28;19973;-73
2021/10/25 05:16:31;;;;;;;;;;;;;;;-144.99;95.60;52480.72;5065113;28;19984;-73
2021/10/25 05:18:57;;;;;;;;;;;;;;;-144.99;96.10;52480.72;5065661;28;20023;-74
2021/10/25 05:21:24;;;;;;;;;;;;;;;-144.99;96.31;52501.09;5066018;28;19988;-76
2021/10/25 05:23:50;;;;;;;;;;;;;;;-144.99;96.60;52517.41;5087949;28;19993;-76
2021/10/25 05:26:16;;;;;;;;;;;;;;;-144.99;96.60;52480.72;5077241;28;20445;-74
2021/10/25 05:28:43;;;;;;;;;;;;;;;-144.99;96.45;52492.94;5066607;28;20382;-75
2021/10/25 05:31:11;;;;;;;;;;;;;;;-144.99;97.70;52464.41;5065380;28;19990;-74
2021/10/25 05:33:39;;;;;;;;;;;;;;;-144.99;97.22;52460.31;5065836;28;20344;-73
2021/10/25 05:36:05;;;;;;;;;;;;;;;-144.99;97.81;52486.81;5064708;28;20110;-74
2021/10/25 05:38:32;;;;;;;;;;;;;;;-144.99;97.58;52472.56;5065454;28;20019;-73
2021/10/25 05:40:58;;;;;;;;;;;;;;;-144.99;97.88;52476.63;5064564;28;20435;-73
2021/10/25 05:43:24;;;;;;;;;;;;;;;-144.99;98.04;52466.44;5071608;28;19977;-74
2021/10/25 05:45:51;;;;;;;;;;;;;;;-144.99;99.17;52517.41;5087445;28;20594;-75
2021/10/25 05:48:19;;;;;;;;;;;;;;;-144.99;99.00;52501.09;5087002;28;20024;-75
2021/10/25 05:50:46;;;;;;;;;;;;;;;-144.99;99.17;52515.34;5084756;28;19985;-73
2021/10/25 05:53:12;;;;;;;;;;;;;;;-144.99;99.33;52474.59;5085638;28;19969;-72
2021/10/25 05:55:40;;;;;;;;;;;;;;;-144.99;99.22;52472.56;5085121;28;20012;-76
2021/10/25 05:58:10;;;;;;;;;;;;;;;-144.99;99.69;52488.84;5076244;28;20214;-73
2021/10/25 06:00:39;;;;;;;;;;;;;;;-144.99;99.58;52448.09;5065578;28;19984;-75
2021/10/25 06:03:06;;;;;;;;;;;;;;;-144.99;99.12;52472.56;5063152;28;20486;-72
2021/10/25 06:05:34;;;;;;;;;;;;;;;-144.99;99.78;52488.84;5056920;28;19984;-72
2021/10/25 06:08:00;;;;;;;;;;;;;;;-144.99;99.91;52456.25;5064986;28;20412;-74
2021/10/25 06:10:27;;;;;;;;;;;;;;;-144.99;99.16;52499.06;5064681;28;19996;-74
2021/10/25 06:12:56;;;;;;;;;;;;;;;-144.99;99.86;52439.94;5058225;28;20375;-74
2021/10/25 06:15:23;;;;;;;;;;;;;;;-144.99;99.42;52470.50;5057662;28;19977;-73
2021/10/25 06:17:54;;;;;;;;;;;;;;;-144.99;100.00;52448.09;5064841;28;19985;-74
2021/10/25 06:20:21;;;;;;;;;;;;;;;-144.99;99.77;52501.09;5062195;28;19997;-74
2021/10/25 06:22:50;;;;;;;;;;;;;;;-144.99;99.73;52452.16;5064314;28;20012;-73
2021/10/25 06:25:17;;;;;;;;;;;;;;;-144.99;99.58;52464.41;5064164;28;20003;-74
2021/10/25 06:27:43;;;;;;;;;;;;;;;-144.99;99.60;52478.66;5062809;28;19980;-74
2021/10/25 06:30:10;;;;;;;;;;;;;;;-144.99;99.09;52480.72;5065029;28;20047;-73
2021/10/25 06:32:37;;;;;;;;;;;;;;;-144.99;99.05;52505.16;5065044;28;20459;-73
2021/10/25 06:35:05;;;;;;;;;;;;;;;-144.99;98.94;52476.63;5064737;28;20149;-73
2021/10/25 06:37:35;;;;;;;;;;;;;;;-144.99;98.30;52484.78;5064908;28;19987;-74
2021/10/25 06:40:06;;;;;;;;;;;;;;;-144.99;97.84;52501.09;5064625;28;20055;-73
2021/10/25 06:42:33;;;;;;;;;;;;;;;-144.99;97.22;52488.84;5062998;28;20409;-74
2021/10/25 06:45:01;;;;;;;;;;;;;;;-144.99;96.82;52490.91;5064240;28;19998;-72
2021/10/25 06:47:27;;;;;;;;;;;;;;;-144.99;95.94;52478.66;5081371;28;19981;-73
2021/10/25 06:49:53;;;;;;;;;;;;;;;-144.99;96.07;52468.47;5086454;28;20000;-75
2021/10/25 06:52:20;;;;;;;;;;;;;;;-144.99;96.74;52480.72;5064683;28;19985;-74
2021/10/25 06:54:46;;;;;;;;;;;;;;;-144.99;96.03;52472.56;5063605;28;19985;-72
2021/10/25 06:57:14;;;;;;;;;;;;;;;-144.99;95.73;52501.09;5072406;28;20494;-74
2021/10/25 06:59:40;;;;;;;;;;;;;;;-144.99;95.60;52488.84;5084197;28;20000;-74
2021/10/25 07:02:06;;;;;;;;;;;;;;;-144.99;95.30;52464.41;5087232;28;19981;-75
2021/10/25 07:04:33;;;;;;;;;;;;;;;-144.99;94.99;52468.47;5075647;28;19996;-74
2021/10/25 07:07:00;;;;;;;;;;;;;;;-144.99;94.90;52448.09;5072103;28;19976;-73
2021/10/25 07:09:26;;;;;;;;;;;;;;;-144.99;94.91;52468.47;5070918;28;20005;-74
2021/10/25 07:11:53;;;;;;;;;;;;;;;-144.99;94.57;52484.78;5069182;28;20363;-74
2021/10/25 07:14:26;;;;;;;;;;;;;;;-144.99;94.34;52452.16;5068580;28;19980;-74
2021/10/25 07:17:03;;;;;;;;;;;;;;;-144.99;94.24;52476.63;5069143;28;20439;-74
2021/10/25 07:19:40;;;;;;;;;;;;;;;-144.99;93.98;52466.44;5069509;28;20032;-75
2021/10/25 07:22:33;;;;;;;;;;;;;;;-144.99;93.47;52494.97;5065352;28;20450;-74
2021/10/25 08:01:15;;;;;;;;;;;;;;;-144.99;78.78;52423.63;5066553;28;19988;-74
2021/10/25 08:04:04;;;;;;;;;;;;;;;-144.99;78.54;52435.88;5057085;28;20003;-75
2021/10/25 08:06:36;;;;;;;;;;;;;;;-144.99;78.19;52403.25;5069430;28;19991;-75
2021/10/25 08:09:11;;;;;;;;;;;;;;;-144.99;77.32;52444.03;5070297;28;20000;-75
2021/10/25 08:11:42;;;;;;;;;;;;;;;-144.99;76.67;52415.47;5082277;28;20039;-75
2021/10/25 08:14:09;;;;;;;;;;;;;;;-144.99;76.31;52423.63;5075720;28;20489;-75
2021/10/25 08:16:46;;;;;;;;;;;;;;;-144.99;76.75;52419.56;5072847;28;19992;-75
2021/10/25 08:19:24;;;;;;;;;;;;;;;-144.99;76.15;52401.22;5065978;28;20004;-75
2021/10/25 08:21:51;;;;;;;;;;;;;;;-144.99;76.54;52435.88;5078172;28;19977;-75
2021/10/25 08:24:17;;;;;;;;;;;;;;;-144.99;75.74;52425.66;5075794;28;20044;-75
2021/10/25 08:26:45;;;;;;;;;;;;;;;-144.99;76.50;52415.47;5070583;28;20212;-75
2021/10/25 08:29:11;;;;;;;;;;;;;;;-144.99;76.06;52452.16;5076599;28;20007;-75
2021/10/25 08:31:38;;;;;;;;;;;;;;;-144.99;75.65;52431.78;5075680;28;20409;-75
2021/10/25 08:39:48;;;;;;;;;;;;;;;-144.99;75.08;52431.78;5083979;28;20007;-76
2021/10/25 08:42:15;;;;;;;;;;;;;;;-144.99;74.80;52423.63;5082415;28;20036;-74
2021/10/25 08:44:42;;;;;;;;;;;;;;;-144.99;73.84;52382.88;5067915;28;20092;-75
2021/10/25 08:47:09;;;;;;;;;;;;;;;-144.99;73.40;52399.19;5068919;28;20485;-75
2021/10/25 08:49:35;;;;;;;;;;;;;;;-144.99;72.22;52431.78;5067897;28;20005;-75
2021/10/25 08:52:03;;;;;;;;;;;;;;;-144.99;70.62;52423.63;5066656;28;20362;-75
2021/10/25 08:54:30;;;;;;;;;;;;;;;-144.99;71.01;52395.09;5067310;28;19988;-75
2021/10/25 08:56:58;;;;;;;;;;;;;;;-144.99;69.48;52399.19;5066920;28;20331;-74
2021/10/25 08:59:25;;;;;;;;;;;;;;;-144.99;68.32;52378.78;5066491;28;19997;-74
2021/10/25 09:01:51;;;;;;;;;;;;;;;-144.99;66.79;52378.78;5067232;28;19987;-76
2021/10/25 09:04:18;;;;;;;;;;;;;;;-144.99;66.48;52378.78;5064293;28;20003;-74
2021/10/25 09:06:49;;;;;;;;;;;;;;;-144.99;66.32;52354.34;5065684;28;19985;-75
2021/10/25 09:09:16;;;;;;;;;;;;;;;-144.99;65.98;52378.78;5067015;28;20009;-75
2021/10/25 09:11:55;;;;;;;;;;;;;;;-144.99;66.18;52403.25;5115065;22;20042;-76
2021/10/25 09:14:21;;;;;;;;;;;;;;;-144.99;65.80;52391.03;5078335;28;19977;-76
2021/10/25 09:16:48;;;;;;;;;;;;;;;-144.99;65.58;52380.84;5076022;28;19962;-75
2021/10/25 09:19:18;;;;;;;;;;;;;;;-144.99;64.08;52366.56;5082861;28;20004;-74
2021/10/25 09:21:44;;;;;;;;;;;;;;;-144.99;62.73;52399.19;5084546;28;20050;-73
2021/10/25 09:24:17;;;;;;;;;;;;;;;-144.99;61.85;52370.63;5084794;28;20001;-76
2021/10/25 09:26:43;;;;;;;;;;;;;;;-144.99;60.87;52338.03;5083999;28;19992;-77
2021/10/25 09:29:10;;;;;;;;;;;;;;;-144.99;59.28;52321.72;5085451;28;19991;-73
2021/10/25 09:31:36;;;;;;;;;;;;;;;-144.99;58.36;52350.25;5085739;28;20118;-76
2021/10/25 09:34:08;;;;;;;;;;;;;;;-144.99;58.47;52360.44;5084215;28;20372;-74
2021/10/25 09:36:37;;;;;;;;;;;;;;;-144.99;60.44;52395.09;5085237;28;20339;-77
2021/10/25 09:39:09;;;;;;;;;;;;;;;-144.99;62.91;52382.88;5085436;28;19980;-75
2021/10/25 09:41:56;;;;;;;;;;;;;;;-144.99;64.22;52413.44;5083841;28;20004;-74
2021/10/25 09:49:52;;;;;;;;;;;;;;;-144.99;65.18;52407.31;5086367;28;20049;-76
2021/10/25 09:52:19;;;;;;;;;;;;;;;-144.99;65.38;52366.56;5085119;28;19980;-75
2021/10/25 09:54:56;;;;;;;;;;;;;;;-144.99;64.91;52350.25;5084256;28;19991;-74
2021/10/25 09:57:27;;;;;;;;;;;;;;;-144.99;62.56;52350.25;5084069;28;19984;-73
2021/10/25 09:59:55;;;;;;;;;;;;;;;-144.99;59.62;52317.66;5084676;28;19987;-74
2021/10/25 10:02:22;;;;;;;;;;;;;;;-144.99;57.15;52301.34;5085490;28;19980;-75
2021/10/25 10:04:52;;;;;;;;;;;;;;;-144.99;56.70;52346.19;5084194;28;20095;-77
2021/10/25 10:07:18;;;;;;;;;;;;;;;-144.99;57.21;52358.41;5084969;28;19984;-75
2021/10/25 10:09:45;;;;;;;;;;;;;;;-144.99;58.15;52350.25;5085205;28;20258;-77
2021/10/25 10:12:15;;;;;;;;;;;;;;;-144.99;60.00;52338.03;5084007;28;20010;-74
2021/10/25 10:14:43;;;;;;;;;;;;;;;-144.99;60.61;52399.19;5081001;28;20071;-75
2021/10/25 10:17:11;;;;;;;;;;;;;;;-144.99;60.35;52340.06;5084186;28;19981;-76
2021/10/25 10:19:37;;;;;;;;;;;;;;;-144.99;60.25;52362.50;5085045;28;20031;-76
2021/10/25 10:22:05;;;;;;;;;;;;;;;-144.99;59.89;52340.06;5082152;28;20000;-75
2021/10/25 10:24:33;;;;;;;;;;;;;;;-144.99;59.29;52299.31;5084465;28;20000;-77
2021/10/25 10:27:01;;;;;;;;;;;;;;;-144.99;56.34;52174.97;5083946;28;19991;-76
2021/10/25 10:29:36;;;;;;;;;;;;;;;-144.99;53.54;52252.44;5084496;28;20445;-74
2021/10/25 10:32:05;;;;;;;;;;;;;;;-144.99;52.39;52244.28;5085929;28;20495;-76
2021/10/25 10:34:38;;;;;;;;;;;;;;;-144.99;51.90;52215.75;5084264;28;20450;-74
2021/10/25 10:37:04;;;;;;;;;;;;;;;-144.99;51.12;52201.47;5081300;28;19976;-76
2021/10/25 10:39:33;;;;;;;;;;;;;;;-144.99;52.37;52333.94;5085234;28;20348;-76
2021/10/25 10:42:02;;;;;;;;;;;;;;;-144.99;55.28;52378.78;5085054;28;20023;-76
2021/10/25 10:44:29;;;;;;;;;;;;;;;-144.99;57.66;52427.72;5078104;28;19997;-75
2021/10/25 10:46:57;;;;;;;;;;;;;;;-144.99;60.60;52419.56;5084242;28;19987;-75
2021/10/25 10:49:29;;;;;;;;;;;;;;;-144.99;61.81;52395.09;5084416;28;20339;-73
2021/10/25 10:52:05;;;;;;;;;;;;;;;-144.99;64.03;52391.03;5083515;28;20048;-75
2021/10/25 10:54:38;;;;;;;;;;;;;;;-144.99;65.64;52421.59;5085090;28;19941;-74
2021/10/25 10:57:08;;;;;;;;;;;;;;;-144.99;66.41;52425.66;5084523;28;19985;-77
2021/10/25 10:59:36;;;;;;;;;;;;;;;-144.99;67.50;52444.03;5084569;28;19987;-75
2021/10/25 11:02:02;;;;;;;;;;;;;;;-144.99;68.17;52441.97;5076926;28;20351;-76
2021/10/25 11:04:31;;;;;;;;;;;;;;;-144.99;68.59;52350.25;5083312;28;19992;-76
2021/10/25 11:06:58;;;;;;;;;;;;;;;-144.99;67.52;52350.25;5084798;28;19990;-76
2021/10/25 11:09:27;;;;;;;;;;;;;;;-144.99;65.26;52321.72;5084677;28;20420;-76
2021/10/25 11:11:59;;;;;;;;;;;;;;;-144.99;62.42;52329.88;5075095;28;20000;-76
2021/10/25 11:14:28;;;;;;;;;;;;;;;-144.99;60.43;52325.81;5079551;28;20431;-74
2021/10/25 11:17:14;;;;;;;;;;;;;;;-144.99;59.20;52272.81;5082948;28;20148;-76
2021/10/25 11:19:46;;;;;;;;;;;;;;;-144.99;57.21;52256.50;5084456;28;19984;-76
2021/10/25 11:22:12;;;;;;;;;;;;;;;-144.99;56.05;52272.81;5075611;28;20960;-74
2021/10/25 11:24:39;;;;;;;;;;;;;;;-144.99;55.62;52280.97;5084139;28;19928;-74
2021/10/25 11:27:05;;;;;;;;;;;;;;;-144.99;56.42;52297.25;5083175;28;19988;-74
2021/10/25 11:29:33;;;;;;;;;;;;;;;-144.99;56.99;52321.72;5084182;28;19985;-74
2021/10/25 11:32:00;;;;;;;;;;;;;;;-144.99;57.82;52331.91;5083730;28;20530;-75
2021/10/25 11:34:29;;;;;;;;;;;;;;;-144.99;59.64;52378.78;5082824;28;20001;-76
2021/10/25 11:37:01;;;;;;;;;;;;;;;-144.99;60.79;52329.88;5067147;28;20431;-73
2021/10/25 11:39:28;;;;;;;;;;;;;;;-144.99;61.20;52305.41;5071096;28;20443;-74
2021/10/25 11:41:55;;;;;;;;;;;;;;;-144.99;62.12;52384.91;5075056;28;20010;-74
2021/10/25 11:44:21;;;;;;;;;;;;;;;-144.99;62.57;52415.47;5079623;28;19992;-74
2021/10/25 11:46:47;;;;;;;;;;;;;;;-144.99;63.78;52382.88;5082123;28;20772;-74
2021/10/25 11:49:20;;;;;;;;;;;;;;;-144.99;64.41;52403.25;5110327;28;19979;-76
2021/10/25 11:51:47;;;;;;;;;;;;;;;-144.99;66.41;52399.19;5088523;28;20376;-72
2021/10/25 11:54:15;;;;;;;;;;;;;;;-144.99;67.30;52423.63;5086195;28;19988;-71
2021/10/25 11:56:43;;;;;;;;;;;;;;;-144.99;68.75;52444.03;5077898;28;19955;-74
2021/10/25 11:59:10;;;;;;;;;;;;;;;-144.99;69.33;52427.72;5084620;28;19956;-75
2021/10/25 12:01:37;;;;;;;;;;;;;;;-144.99;69.87;52431.78;5086496;28;20497;-73
2021/10/25 12:04:04;;;;;;;;;;;;;;;-144.99;69.88;52456.25;5082428;28;20492;-74
2021/10/25 12:06:31;;;;;;;;;;;;;;;-144.99;71.15;52382.88;5086059;28;19984;-75
2021/10/25 12:08:58;;;;;;;;;;;;;;;-144.99;71.46;52460.31;5072919;28;20287;-74
2021/10/25 12:11:50;;;;;;;;;;;;;;;-144.99;72.30;52391.03;5088330;28;20004;-74
2021/10/25 12:14:18;;;;;;;;;;;;;;;-144.99;71.99;52419.56;5077756;28;19976;-74
2021/10/25 12:16:47;;;;;;;;;;;;;;;-144.99;72.45;52391.03;5088041;28;20412;-75
2021/10/25 12:19:17;;;;;;;;;;;;;;;-144.99;72.85;52429.75;5088116;28;19991;-74
2021/10/25 12:21:44;;;;;;;;;;;;;;;-144.99;73.07;52435.88;5071851;28;19992;-76
2021/10/25 12:24:11;;;;;;;;;;;;;;;-144.99;73.82;52448.09;5084128;28;19976;-74
2021/10/25 12:26:40;;;;;;;;;;;;;;;-144.99;73.29;52423.63;5084631;28;19984;-74
2021/10/25 12:29:13;;;;;;;;;;;;;;;-144.99;73.91;52407.31;5085613;28;19984;-75
2021/10/25 12:31:39;;;;;;;;;;;;;;;-144.99;74.22;52423.63;5086382;28;20001;-74
2021/10/25 12:34:06;;;;;;;;;;;;;;;-144.99;74.11;52415.47;5085903;28;19973;-75
2021/10/25 12:36:34;;;;;;;;;;;;;;;-144.99;74.37;52427.72;5085954;28;19989;-74
2021/10/25 12:39:00;;;;;;;;;;;;;;;-144.99;75.07;52407.31;5086321;28;19985;-77
2021/10/25 12:41:27;;;;;;;;;;;;;;;-144.99;75.74;52427.72;5083289;28;20016;-74
2021/10/25 12:43:57;;;;;;;;;;;;;;;-144.99;75.45;52395.09;5081066;28;20046;-68
2021/10/25 12:46:30;;;;;;;;;;;;;;;-144.99;77.23;52439.94;5085307;28;20034;-70
2021/10/25 12:48:57;;;;;;;;;;;;;;;-144.99;76.95;52409.38;5073849;28;19980;-68
2021/10/25 12:51:33;;;;;;;;;;;;;;;-144.99;76.98;52448.09;5084646;28;20592;-73
2021/10/25 12:54:06;;;;;;;;;;;;;;;-144.99;76.90;52395.09;5085815;28;19987;-78
2021/10/25 12:56:32;;;;;;;;;;;;;;;-144.99;76.61;52425.66;5085758;28;19984;-68
2021/10/25 12:59:01;;;;;;;;;;;;;;;-144.99;76.40;52441.97;5079099;28;19981;-69
2021/10/25 13:01:27;;;;;;;;;;;;;;;-144.99;76.63;52444.03;5080817;28;20096;-68
2021/10/25 13:03:56;;;;;;;;;;;;;;;-144.99;77.21;52448.09;5081973;28;20386;-76
2021/10/25 13:06:26;;;;;;;;;;;;;;;-144.99;77.26;52407.31;5081516;28;20008;-75
2021/10/25 13:08:58;;;;;;;;;;;;;;;-144.99;77.79;52444.03;5085623;28;20079;-74
2021/10/25 13:11:25;;;;;;;;;;;;;;;-144.99;77.73;52399.19;5075324;28;20484;-76
2021/10/25 13:13:51;;;;;;;;;;;;;;;-144.99;77.55;52460.31;5085636;28;20091;-74
2021/10/25 13:16:22;;;;;;;;;;;;;;;-144.99;77.60;52423.63;5077518;28;19985;-74
2021/10/25 13:18:49;;;;;;;;;;;;;;;-144.99;77.37;52458.28;5082170;28;19980;-75
2021/10/25 13:21:15;;;;;;;;;;;;;;;-144.99;77.84;52409.38;5083869;28;20092;-75
2021/10/25 13:23:42;;;;;;;;;;;;;;;-144.99;78.18;52444.03;5087552;28;19996;-76
2021/10/25 13:26:09;;;;;;;;;;;;;;;-144.99;79.51;52448.09;5092348;28;20282;-75
2021/10/25 13:28:35;;;;;;;;;;;;;;;-144.99;79.32;52439.94;5089016;28;20440;-75
2021/10/25 13:31:01;;;;;;;;;;;;;;;-144.99;79.07;52431.78;5085506;28;20000;-77
2021/10/25 13:33:34;;;;;;;;;;;;;;;-144.99;79.48;52423.63;5085890;28;19984;-76
2021/10/25 13:36:01;;;;;;;;;;;;;;;-144.99;79.29;52415.47;5087255;28;20015;-74
2021/10/25 13:38:27;;;;;;;;;;;;;;;-144.99;80.13;52435.88;5088164;28;19990;-75
2021/10/25 13:40:54;;;;;;;;;;;;;;;-144.99;80.58;52395.09;5082933;28;19997;-74
2021/10/25 13:43:21;;;;;;;;;;;;;;;-144.99;80.90;52403.25;5083412;28;19996;-76
2021/10/25 13:45:47;;;;;;;;;;;;;;;-144.99;81.05;52399.19;5086330;28;20081;-73
2021/10/25 13:48:14;;;;;;;;;;;;;;;-144.99;80.52;52437.91;5094941;28;19972;-76